createdAt,value
2019-03-01T00:00:22.766Z,22.98
2019-03-01T00:01:22.752Z,23.04
2019-03-01T00:02:22.743Z,23.09
2019-03-01T00:03:22.747Z,23.10
2019-03-01T00:04:23.149Z,23.01
2019-03-01T00:05:22.708Z,22.95
2019-03-01T00:06:22.698Z,23.01
2019-03-01T00:07:23.632Z,23.01
2019-03-01T00:08:23.638Z,23.01
2019-03-01T00:09:22.679Z,23.02
2019-03-01T00:10:23.633Z,22.97
2019-03-01T00:11:22.650Z,23.04
2019-03-01T00:12:23.132Z,23.02
2019-03-01T00:13:23.132Z,23.00
2019-03-01T00:14:22.620Z,23.04
2019-03-01T00:15:22.616Z,23.01
2019-03-01T00:16:22.592Z,23.00
2019-03-01T00:17:22.582Z,23.04
2019-03-01T00:18:22.569Z,23.02
2019-03-01T00:19:22.557Z,22.98
2019-03-01T00:20:22.556Z,23.05
2019-03-01T00:21:23.134Z,22.95
2019-03-01T00:22:23.138Z,23.02
2019-03-01T00:23:22.523Z,22.98
2019-03-01T00:24:23.132Z,22.95
2019-03-01T00:25:22.515Z,23.01
2019-03-01T00:26:22.537Z,23.07
2019-03-01T00:27:22.479Z,22.97
2019-03-01T00:28:23.141Z,23.01
2019-03-01T00:29:22.460Z,23.01
2019-03-01T00:30:22.644Z,22.94
2019-03-01T00:31:22.428Z,23.05
2019-03-01T00:32:22.416Z,23.07
2019-03-01T00:33:22.423Z,23.01
2019-03-01T00:34:22.399Z,23.04
2019-03-01T00:35:22.400Z,23.01
2019-03-01T00:36:22.375Z,22.97
2019-03-01T00:37:23.133Z,23.00
2019-03-01T00:38:23.145Z,22.98
2019-03-01T00:39:22.345Z,23.01
2019-03-01T00:40:22.339Z,22.98
2019-03-01T00:41:22.643Z,23.00
2019-03-01T00:42:23.133Z,22.95
2019-03-01T00:43:23.158Z,23.04
2019-03-01T00:44:22.293Z,22.91
2019-03-01T00:45:22.307Z,23.01
2019-03-01T00:46:22.279Z,23.01
2019-03-01T00:47:22.256Z,23.02
2019-03-01T00:48:23.143Z,23.01
2019-03-01T00:49:22.239Z,23.01
2019-03-01T00:50:22.227Z,22.91
2019-03-01T00:51:22.234Z,22.98
2019-03-01T00:52:22.204Z,23.05
2019-03-01T00:53:22.207Z,22.98
2019-03-01T00:54:22.177Z,22.98
2019-03-01T00:55:22.170Z,22.92
2019-03-01T00:56:22.168Z,22.97
2019-03-01T00:57:22.148Z,22.91
2019-03-01T00:58:22.143Z,22.97
2019-03-01T00:59:22.128Z,22.95
2019-03-01T01:00:22.118Z,22.98
2019-03-01T01:01:22.158Z,23.00
2019-03-01T01:02:22.640Z,22.94
2019-03-01T01:03:22.085Z,22.92
2019-03-01T01:04:22.074Z,22.95
2019-03-01T01:05:22.065Z,22.91
2019-03-01T01:06:22.150Z,22.98
2019-03-01T01:07:22.044Z,22.95
2019-03-01T01:08:22.029Z,22.94
2019-03-01T01:09:22.021Z,22.95
2019-03-01T01:10:22.008Z,22.94
2019-03-01T01:11:21.998Z,22.97
2019-03-01T01:12:21.996Z,22.88
2019-03-01T01:13:21.976Z,22.90
2019-03-01T01:14:21.963Z,22.92
2019-03-01T01:15:21.961Z,22.94
2019-03-01T01:16:21.944Z,22.94
2019-03-01T01:17:21.948Z,22.92
2019-03-01T01:18:22.635Z,22.92
2019-03-01T01:19:21.909Z,22.94
2019-03-01T01:20:21.902Z,22.95
2019-03-01T01:21:21.888Z,22.94
2019-03-01T01:22:21.907Z,22.91
2019-03-01T01:23:22.637Z,22.94
2019-03-01T01:24:22.646Z,22.94
2019-03-01T01:25:21.846Z,22.92
2019-03-01T01:26:21.835Z,22.92
2019-03-01T01:27:22.156Z,22.92
2019-03-01T01:28:21.814Z,22.95
2019-03-01T01:29:21.818Z,22.98
2019-03-01T01:30:22.640Z,22.95
2019-03-01T01:31:21.785Z,22.91
2019-03-01T01:32:22.150Z,22.95
2019-03-01T01:33:21.758Z,22.92
2019-03-01T01:34:21.749Z,22.94
2019-03-01T01:35:22.639Z,22.95
2019-03-01T01:36:21.726Z,22.94
2019-03-01T01:37:21.725Z,22.94
2019-03-01T01:38:21.703Z,22.88
2019-03-01T01:39:23.108Z,22.92
2019-03-01T01:40:22.638Z,22.94
2019-03-01T01:41:22.645Z,22.94
2019-03-01T01:42:21.674Z,22.94
2019-03-01T01:43:22.433Z,22.92
2019-03-01T01:44:21.638Z,22.92
2019-03-01T01:45:22.141Z,22.91
2019-03-01T01:46:21.618Z,22.88
2019-03-01T01:47:21.606Z,22.90
2019-03-01T01:48:21.608Z,22.94
2019-03-01T01:49:21.583Z,22.85
2019-03-01T01:50:21.573Z,22.88
2019-03-01T01:51:22.141Z,22.83
2019-03-01T01:52:22.145Z,22.88
2019-03-01T01:53:21.545Z,22.98
2019-03-01T01:54:21.533Z,22.85
2019-03-01T01:55:21.516Z,22.91
2019-03-01T01:56:21.506Z,22.90
2019-03-01T01:57:22.139Z,22.88
2019-03-01T01:58:21.502Z,22.92
2019-03-01T01:59:21.486Z,22.85
2019-03-01T02:00:21.462Z,22.83
2019-03-01T02:01:21.452Z,22.88
2019-03-01T02:02:22.156Z,22.92
2019-03-01T02:03:21.445Z,22.86
2019-03-01T02:04:21.421Z,22.90
2019-03-01T02:05:21.412Z,22.86
2019-03-01T02:06:21.396Z,22.94
2019-03-01T02:07:21.388Z,22.86
2019-03-01T02:08:21.651Z,22.86
2019-03-01T02:09:21.365Z,22.85
2019-03-01T02:10:22.139Z,22.91
2019-03-01T02:11:22.142Z,22.88
2019-03-01T02:12:21.334Z,22.94
2019-03-01T02:13:21.651Z,22.86
2019-03-01T02:14:21.310Z,22.80
2019-03-01T02:15:22.141Z,22.85
2019-03-01T02:16:21.293Z,22.91
2019-03-01T02:17:21.279Z,22.83
2019-03-01T02:18:21.654Z,22.88
2019-03-01T02:19:21.267Z,22.86
2019-03-01T02:20:22.141Z,22.86
2019-03-01T02:21:21.238Z,22.90
2019-03-01T02:22:21.226Z,22.80
2019-03-01T02:23:21.243Z,22.83
2019-03-01T02:24:21.221Z,22.86
2019-03-01T02:25:21.193Z,22.88
2019-03-01T02:26:21.184Z,22.80
2019-03-01T02:27:21.169Z,22.83
2019-03-01T02:28:21.174Z,22.88
2019-03-01T02:29:21.166Z,22.88
2019-03-01T02:30:21.142Z,22.88
2019-03-01T02:31:21.138Z,22.88
2019-03-01T02:32:21.122Z,22.79
2019-03-01T02:33:21.122Z,22.80
2019-03-01T02:34:21.146Z,22.79
2019-03-01T02:35:21.644Z,22.85
2019-03-01T02:36:21.665Z,22.82
2019-03-01T02:37:21.064Z,22.82
2019-03-01T02:38:21.156Z,22.80
2019-03-01T02:39:21.065Z,22.85
2019-03-01T02:40:21.035Z,22.80
2019-03-01T02:41:21.645Z,22.86
2019-03-01T02:42:21.013Z,22.83
2019-03-01T02:43:21.157Z,22.83
2019-03-01T02:44:21.021Z,22.82
2019-03-01T02:45:20.974Z,22.82
2019-03-01T02:46:20.965Z,22.79
2019-03-01T02:47:20.954Z,22.82
2019-03-01T02:48:20.956Z,22.75
2019-03-01T02:49:21.166Z,22.80
2019-03-01T02:50:20.923Z,22.80
2019-03-01T02:51:20.913Z,22.82
2019-03-01T02:52:21.643Z,22.80
2019-03-01T02:53:20.892Z,22.77
2019-03-01T02:54:20.925Z,22.80
2019-03-01T02:55:20.872Z,22.79
2019-03-01T02:56:20.864Z,22.82
2019-03-01T02:57:20.846Z,22.85
2019-03-01T02:58:20.838Z,22.85
2019-03-01T02:59:20.877Z,22.82
2019-03-01T03:00:20.816Z,22.82
2019-03-01T03:01:20.814Z,22.82
2019-03-01T03:02:20.793Z,22.80
2019-03-01T03:03:20.789Z,22.83
2019-03-01T03:04:20.793Z,22.76
2019-03-01T03:05:20.761Z,22.82
2019-03-01T03:06:21.648Z,22.79
2019-03-01T03:07:20.744Z,22.83
2019-03-01T03:08:20.727Z,22.85
2019-03-01T03:09:20.740Z,22.82
2019-03-01T03:10:20.705Z,22.76
2019-03-01T03:11:20.695Z,22.79
2019-03-01T03:12:20.683Z,22.80
2019-03-01T03:13:20.673Z,22.86
2019-03-01T03:14:20.686Z,22.80
2019-03-01T03:15:20.651Z,22.85
2019-03-01T03:16:20.642Z,22.77
2019-03-01T03:17:20.629Z,22.82
2019-03-01T03:18:20.618Z,22.77
2019-03-01T03:19:20.675Z,22.79
2019-03-01T03:20:20.601Z,22.88
2019-03-01T03:21:20.586Z,22.82
2019-03-01T03:22:20.574Z,22.86
2019-03-01T03:23:20.572Z,22.80
2019-03-01T03:24:20.568Z,22.86
2019-03-01T03:25:20.547Z,22.79
2019-03-01T03:26:21.148Z,22.83
2019-03-01T03:27:21.146Z,22.85
2019-03-01T03:28:20.505Z,22.85
2019-03-01T03:29:21.153Z,22.85
2019-03-01T03:30:20.549Z,22.83
2019-03-01T03:31:20.477Z,22.82
2019-03-01T03:32:20.474Z,22.80
2019-03-01T03:33:20.480Z,22.85
2019-03-01T03:34:20.461Z,22.85
2019-03-01T03:35:20.441Z,22.80
2019-03-01T03:36:20.420Z,22.85
2019-03-01T03:37:20.407Z,22.77
2019-03-01T03:38:21.172Z,22.82
2019-03-01T03:39:20.385Z,22.83
2019-03-01T03:40:20.478Z,22.82
2019-03-01T03:41:20.367Z,22.80
2019-03-01T03:42:20.356Z,22.82
2019-03-01T03:43:22.680Z,22.83
2019-03-01T03:44:20.333Z,22.85
2019-03-01T03:45:20.686Z,22.77
2019-03-01T03:46:20.310Z,22.83
2019-03-01T03:47:20.299Z,22.79
2019-03-01T03:48:20.292Z,22.83
2019-03-01T03:49:20.279Z,22.82
2019-03-01T03:50:20.290Z,22.83
2019-03-01T03:51:21.181Z,22.80
2019-03-01T03:52:20.245Z,22.80
2019-03-01T03:53:20.233Z,22.83
2019-03-01T03:54:20.222Z,22.80
2019-03-01T03:55:20.322Z,22.79
2019-03-01T03:56:20.199Z,22.79
2019-03-01T03:57:20.185Z,22.79
2019-03-01T03:58:21.154Z,22.80
2019-03-01T03:59:21.154Z,22.79
2019-03-01T04:00:20.176Z,22.80
2019-03-01T04:01:20.651Z,22.76
2019-03-01T04:02:20.649Z,22.83
2019-03-01T04:03:20.653Z,22.79
2019-03-01T04:04:20.119Z,22.82
2019-03-01T04:05:20.138Z,22.77
2019-03-01T04:06:20.653Z,22.77
2019-03-01T04:07:20.081Z,22.80
2019-03-01T04:08:20.069Z,22.85
2019-03-01T04:09:20.653Z,22.76
2019-03-01T04:10:20.081Z,22.80
2019-03-01T04:11:20.651Z,22.76
2019-03-01T04:12:20.023Z,22.79
2019-03-01T04:13:20.029Z,22.75
2019-03-01T04:14:19.998Z,22.77
2019-03-01T04:15:20.664Z,22.77
2019-03-01T04:16:19.988Z,22.80
2019-03-01T04:17:19.969Z,22.79
2019-03-01T04:18:19.957Z,22.79
2019-03-01T04:19:19.945Z,22.80
2019-03-01T04:20:20.662Z,22.70
2019-03-01T04:21:19.938Z,22.79
2019-03-01T04:22:20.651Z,22.77
2019-03-01T04:23:20.654Z,22.82
2019-03-01T04:24:19.893Z,22.83
2019-03-01T04:25:19.898Z,22.80
2019-03-01T04:26:19.891Z,22.77
2019-03-01T04:27:19.857Z,22.75
2019-03-01T04:28:20.659Z,22.77
2019-03-01T04:29:19.837Z,22.77
2019-03-01T04:30:19.840Z,22.76
2019-03-01T04:31:19.827Z,22.76
2019-03-01T04:32:19.801Z,22.79
2019-03-01T04:33:19.795Z,22.75
2019-03-01T04:34:19.780Z,22.77
2019-03-01T04:35:19.781Z,22.77
2019-03-01T04:36:19.777Z,22.73
2019-03-01T04:37:19.749Z,22.79
2019-03-01T04:38:19.736Z,22.77
2019-03-01T04:39:19.732Z,22.75
2019-03-01T04:40:19.736Z,22.77
2019-03-01T04:41:20.652Z,22.75
2019-03-01T04:42:19.700Z,22.75
2019-03-01T04:43:20.652Z,22.73
2019-03-01T04:44:19.669Z,22.77
2019-03-01T04:45:19.671Z,22.75
2019-03-01T04:46:19.649Z,22.76
2019-03-01T04:47:19.649Z,22.73
2019-03-01T04:48:19.626Z,22.76
2019-03-01T04:49:19.613Z,22.77
2019-03-01T04:50:20.170Z,22.77
2019-03-01T04:51:20.153Z,22.72
2019-03-01T04:52:19.596Z,22.73
2019-03-01T04:53:19.574Z,22.77
2019-03-01T04:54:19.563Z,22.70
2019-03-01T04:55:19.569Z,22.67
2019-03-01T04:56:19.537Z,22.76
2019-03-01T04:57:19.540Z,22.73
2019-03-01T04:58:19.517Z,22.73
2019-03-01T04:59:19.510Z,22.73
2019-03-01T05:00:19.505Z,22.72
2019-03-01T05:01:19.482Z,22.70
2019-03-01T05:02:19.483Z,22.75
2019-03-01T05:03:19.462Z,22.75
2019-03-01T05:04:19.450Z,22.72
2019-03-01T05:05:20.169Z,22.70
2019-03-01T05:06:19.425Z,22.77
2019-03-01T05:07:19.429Z,22.75
2019-03-01T05:08:19.406Z,22.73
2019-03-01T05:09:19.395Z,22.72
2019-03-01T05:10:19.398Z,22.75
2019-03-01T05:11:19.374Z,22.67
2019-03-01T05:12:19.664Z,22.79
2019-03-01T05:13:19.349Z,22.75
2019-03-01T05:14:19.340Z,22.73
2019-03-01T05:15:20.168Z,22.70
2019-03-01T05:16:19.319Z,22.76
2019-03-01T05:17:19.310Z,22.70
2019-03-01T05:18:19.307Z,22.73
2019-03-01T05:19:19.289Z,22.75
2019-03-01T05:20:20.170Z,22.72
2019-03-01T05:21:19.267Z,22.75
2019-03-01T05:22:19.250Z,22.72
2019-03-01T05:23:19.255Z,22.72
2019-03-01T05:24:19.230Z,22.73
2019-03-01T05:25:19.257Z,22.67
2019-03-01T05:26:19.210Z,22.73
2019-03-01T05:27:20.153Z,22.67
2019-03-01T05:28:19.667Z,22.72
2019-03-01T05:29:20.156Z,22.75
2019-03-01T05:30:20.184Z,22.73
2019-03-01T05:31:19.655Z,22.72
2019-03-01T05:32:19.140Z,22.70
2019-03-01T05:33:19.144Z,22.72
2019-03-01T05:34:19.119Z,22.73
2019-03-01T05:35:19.107Z,22.72
2019-03-01T05:36:19.108Z,22.70
2019-03-01T05:37:19.084Z,22.72
2019-03-01T05:38:22.070Z,22.75
2019-03-01T05:39:19.065Z,22.73
2019-03-01T05:40:19.049Z,22.67
2019-03-01T05:41:19.058Z,22.70
2019-03-01T05:42:19.655Z,22.72
2019-03-01T05:43:19.028Z,22.67
2019-03-01T05:44:19.655Z,22.72
2019-03-01T05:45:19.027Z,22.70
2019-03-01T05:46:18.995Z,22.70
2019-03-01T05:47:18.975Z,22.72
2019-03-01T05:48:18.975Z,22.72
2019-03-01T05:49:18.953Z,22.65
2019-03-01T05:50:18.948Z,22.73
2019-03-01T05:51:19.683Z,22.65
2019-03-01T05:52:19.654Z,22.72
2019-03-01T05:53:19.169Z,22.72
2019-03-01T05:54:18.896Z,22.72
2019-03-01T05:55:18.886Z,22.72
2019-03-01T05:56:19.673Z,22.72
2019-03-01T05:57:18.869Z,22.68
2019-03-01T05:58:18.864Z,22.75
2019-03-01T05:59:18.845Z,22.73
2019-03-01T06:00:18.832Z,22.70
2019-03-01T06:01:19.674Z,22.75
2019-03-01T06:02:19.661Z,22.73
2019-03-01T06:03:18.820Z,22.68
2019-03-01T06:04:18.788Z,22.72
2019-03-01T06:05:18.798Z,22.68
2019-03-01T06:06:18.779Z,22.67
2019-03-01T06:07:19.660Z,22.70
2019-03-01T06:08:18.748Z,22.70
2019-03-01T06:09:18.740Z,22.67
2019-03-01T06:10:18.724Z,22.68
2019-03-01T06:11:18.721Z,22.70
2019-03-01T06:12:18.704Z,22.72
2019-03-01T06:13:19.660Z,22.70
2019-03-01T06:14:18.686Z,22.72
2019-03-01T06:15:18.667Z,22.73
2019-03-01T06:16:18.669Z,22.67
2019-03-01T06:17:19.158Z,22.67
2019-03-01T06:18:19.157Z,22.67
2019-03-01T06:19:18.636Z,22.75
2019-03-01T06:20:18.613Z,22.72
2019-03-01T06:21:18.619Z,22.62
2019-03-01T06:22:18.591Z,22.75
2019-03-01T06:23:18.581Z,22.68
2019-03-01T06:24:18.595Z,22.72
2019-03-01T06:25:18.576Z,22.70
2019-03-01T06:26:18.561Z,22.67
2019-03-01T06:27:18.539Z,22.70
2019-03-01T06:28:19.155Z,22.70
2019-03-01T06:29:18.523Z,22.72
2019-03-01T06:30:19.160Z,22.62
2019-03-01T06:31:18.502Z,22.73
2019-03-01T06:32:19.174Z,22.72
2019-03-01T06:33:18.467Z,22.72
2019-03-01T06:34:18.470Z,22.67
2019-03-01T06:35:18.452Z,22.75
2019-03-01T06:36:19.534Z,22.68
2019-03-01T06:37:18.425Z,22.72
2019-03-01T06:38:18.413Z,22.70
2019-03-01T06:39:18.413Z,22.68
2019-03-01T06:40:18.403Z,22.68
2019-03-01T06:41:18.394Z,22.70
2019-03-01T06:42:18.385Z,22.70
2019-03-01T06:43:18.360Z,22.67
2019-03-01T06:44:18.359Z,22.73
2019-03-01T06:45:18.340Z,22.64
2019-03-01T06:46:18.344Z,22.65
2019-03-01T06:47:18.333Z,22.67
2019-03-01T06:48:18.309Z,22.65
2019-03-01T06:49:18.311Z,22.65
2019-03-01T06:50:18.302Z,22.67
2019-03-01T06:51:18.288Z,22.67
2019-03-01T06:52:18.265Z,22.65
2019-03-01T06:53:18.261Z,22.75
2019-03-01T06:54:18.268Z,22.68
2019-03-01T06:55:18.266Z,22.72
2019-03-01T06:56:18.282Z,22.70
2019-03-01T06:57:19.185Z,22.67
2019-03-01T06:58:19.160Z,22.73
2019-03-01T06:59:18.199Z,22.65
2019-03-01T07:00:18.213Z,22.65
2019-03-01T07:01:18.166Z,22.68
2019-03-01T07:02:18.158Z,22.72
2019-03-01T07:03:18.661Z,22.68
2019-03-01T07:04:18.131Z,22.75
2019-03-01T07:05:18.135Z,22.72
2019-03-01T07:06:18.112Z,22.72
2019-03-01T07:07:18.100Z,22.61
2019-03-01T07:08:18.672Z,22.73
2019-03-01T07:09:18.088Z,22.70
2019-03-01T07:10:18.088Z,22.65
2019-03-01T07:11:18.662Z,22.64
2019-03-01T07:12:18.661Z,22.72
2019-03-01T07:13:18.034Z,22.67
2019-03-01T07:14:18.027Z,22.73
2019-03-01T07:15:18.173Z,22.62
2019-03-01T07:16:18.010Z,22.76
2019-03-01T07:17:17.989Z,22.64
2019-03-01T07:18:17.981Z,22.64
2019-03-01T07:19:17.969Z,22.75
2019-03-01T07:20:17.957Z,22.67
2019-03-01T07:21:17.953Z,22.64
2019-03-01T07:22:18.663Z,22.64
2019-03-01T07:23:18.665Z,22.61
2019-03-01T07:24:18.023Z,22.73
2019-03-01T07:25:17.906Z,22.64
2019-03-01T07:26:17.944Z,22.75
2019-03-01T07:27:18.668Z,22.61
2019-03-01T07:28:17.873Z,22.70
2019-03-01T07:29:17.862Z,22.70
2019-03-01T07:30:17.855Z,22.70
2019-03-01T07:31:18.174Z,22.72
2019-03-01T07:32:18.676Z,22.72
2019-03-01T07:33:17.818Z,22.68
2019-03-01T07:34:17.804Z,22.70
2019-03-01T07:35:17.796Z,22.73
2019-03-01T07:36:17.794Z,22.73
2019-03-01T07:37:17.775Z,22.75
2019-03-01T07:38:17.777Z,22.72
2019-03-01T07:39:18.666Z,22.82
2019-03-01T07:40:17.745Z,22.73
2019-03-01T07:41:17.746Z,22.72
2019-03-01T07:42:17.724Z,22.73
2019-03-01T07:43:18.668Z,22.73
2019-03-01T07:44:17.703Z,22.72
2019-03-01T07:45:17.690Z,22.73
2019-03-01T07:46:17.689Z,22.82
2019-03-01T07:47:18.665Z,22.73
2019-03-01T07:48:17.658Z,22.73
2019-03-01T07:49:17.648Z,22.77
2019-03-01T07:50:18.162Z,22.75
2019-03-01T07:51:17.678Z,22.77
2019-03-01T07:52:17.616Z,22.77
2019-03-01T07:53:17.603Z,22.82
2019-03-01T07:54:18.038Z,22.75
2019-03-01T07:55:18.166Z,22.73
2019-03-01T07:56:17.582Z,22.82
2019-03-01T07:57:17.574Z,22.79
2019-03-01T07:58:17.550Z,22.75
2019-03-01T07:59:17.541Z,22.79
2019-03-01T08:00:17.528Z,22.79
2019-03-01T08:01:17.552Z,22.76
2019-03-01T08:02:17.505Z,22.80
2019-03-01T08:03:17.495Z,22.75
2019-03-01T08:04:17.489Z,22.77
2019-03-01T08:05:17.479Z,22.65
2019-03-01T08:06:17.465Z,22.60
2019-03-01T08:07:20.546Z,22.51
2019-03-01T08:08:17.442Z,22.51
2019-03-01T08:09:17.434Z,22.37
2019-03-01T08:10:22.140Z,22.22
2019-03-01T08:11:17.411Z,22.05
2019-03-01T08:12:17.411Z,21.80
2019-03-01T08:13:18.358Z,21.58
2019-03-01T08:14:17.377Z,21.40
2019-03-01T08:15:17.373Z,21.42
2019-03-01T08:16:20.076Z,21.27
2019-03-01T08:17:17.364Z,21.13
2019-03-01T08:18:17.338Z,20.88
2019-03-01T08:19:22.412Z,20.77
2019-03-01T08:20:17.322Z,20.67
2019-03-01T08:21:17.310Z,20.57
2019-03-01T08:22:20.910Z,20.54
2019-03-01T08:23:17.279Z,20.50
2019-03-01T08:24:18.215Z,20.42
2019-03-01T08:25:22.819Z,20.29
2019-03-01T08:26:17.283Z,20.35
2019-03-01T08:27:17.279Z,20.24
2019-03-01T08:28:18.579Z,20.23
2019-03-01T08:29:17.212Z,20.11
2019-03-01T08:30:17.210Z,20.10
2019-03-01T08:31:17.422Z,20.10
2019-03-01T08:32:17.189Z,20.11
2019-03-01T08:33:17.188Z,20.03
2019-03-01T08:34:17.758Z,19.94
2019-03-01T08:35:17.145Z,19.92
2019-03-01T08:36:17.138Z,19.94
2019-03-01T08:37:17.614Z,19.88
2019-03-01T08:38:17.114Z,19.71
2019-03-01T08:39:17.100Z,19.80
2019-03-01T08:40:17.109Z,19.80
2019-03-01T08:41:17.082Z,19.69
2019-03-01T08:42:17.091Z,19.65
2019-03-01T08:43:17.062Z,19.63
2019-03-01T08:44:19.444Z,19.69
2019-03-01T08:45:17.039Z,19.62
2019-03-01T08:46:17.049Z,19.58
2019-03-01T08:47:23.258Z,19.69
2019-03-01T08:48:17.018Z,20.13
2019-03-01T08:49:16.993Z,20.54
2019-03-01T08:50:16.984Z,20.80
2019-03-01T08:51:16.971Z,20.76
2019-03-01T08:52:16.984Z,20.79
2019-03-01T08:53:16.949Z,20.70
2019-03-01T08:54:16.938Z,20.70
2019-03-01T08:55:16.926Z,20.61
2019-03-01T08:56:25.578Z,20.55
2019-03-01T08:57:16.924Z,20.41
2019-03-01T08:58:16.898Z,20.41
2019-03-01T08:59:17.597Z,20.42
2019-03-01T09:00:16.871Z,20.31
2019-03-01T09:01:16.856Z,20.36
2019-03-01T09:02:16.872Z,20.35
2019-03-01T09:03:22.214Z,20.31
2019-03-01T09:04:17.638Z,20.48
2019-03-01T09:05:16.818Z,20.38
2019-03-01T09:06:16.918Z,20.48
2019-03-01T09:07:16.815Z,20.48
2019-03-01T09:08:16.779Z,20.50
2019-03-01T09:09:20.973Z,20.54
2019-03-01T09:10:16.761Z,20.51
2019-03-01T09:11:16.749Z,20.35
2019-03-01T09:12:16.759Z,20.32
2019-03-01T09:13:16.726Z,20.38
2019-03-01T09:14:16.716Z,20.26
2019-03-01T09:15:16.705Z,20.24
2019-03-01T09:16:16.694Z,20.21
2019-03-01T09:17:16.694Z,20.20
2019-03-01T09:18:16.685Z,20.23
2019-03-01T09:19:16.660Z,20.13
2019-03-01T09:20:16.653Z,20.14
2019-03-01T09:21:16.646Z,20.14
2019-03-01T09:22:16.680Z,20.10
2019-03-01T09:23:24.224Z,20.08
2019-03-01T09:24:16.606Z,20.10
2019-03-01T09:25:16.596Z,19.96
2019-03-01T09:26:19.634Z,20.02
2019-03-01T09:27:16.576Z,19.99
2019-03-01T09:28:16.583Z,20.05
2019-03-01T09:29:18.455Z,20.01
2019-03-01T09:30:16.540Z,20.01
2019-03-01T09:31:16.527Z,20.06
2019-03-01T09:32:17.171Z,20.06
2019-03-01T09:33:17.158Z,20.02
2019-03-01T09:34:16.510Z,19.99
2019-03-01T09:35:16.482Z,19.92
2019-03-01T09:36:17.806Z,19.99
2019-03-01T09:37:17.170Z,19.98
2019-03-01T09:38:16.473Z,20.01
2019-03-01T09:39:18.112Z,20.05
2019-03-01T09:40:16.428Z,20.02
2019-03-01T09:41:16.419Z,20.03
2019-03-01T09:42:17.171Z,20.01
2019-03-01T09:43:16.693Z,19.99
2019-03-01T09:44:17.176Z,20.01
2019-03-01T09:45:16.372Z,20.01
2019-03-01T09:46:16.367Z,20.05
2019-03-01T09:47:16.371Z,20.01
2019-03-01T09:48:16.360Z,20.01
2019-03-01T09:49:17.174Z,19.98
2019-03-01T09:50:16.319Z,20.01
2019-03-01T09:51:16.313Z,20.02
2019-03-01T09:52:16.295Z,20.03
2019-03-01T09:53:16.303Z,20.02
2019-03-01T09:54:16.274Z,19.99
2019-03-01T09:55:17.172Z,20.03
2019-03-01T09:56:16.255Z,19.98
2019-03-01T09:57:16.500Z,19.95
2019-03-01T09:58:16.252Z,19.98
2019-03-01T09:59:16.216Z,19.92
2019-03-01T10:00:16.209Z,19.91
2019-03-01T10:01:17.173Z,19.88
2019-03-01T10:02:17.176Z,19.92
2019-03-01T10:03:16.684Z,19.92
2019-03-01T10:04:16.175Z,19.91
2019-03-01T10:05:16.151Z,19.95
2019-03-01T10:06:16.141Z,19.84
2019-03-01T10:07:16.139Z,19.96
2019-03-01T10:08:16.132Z,19.92
2019-03-01T10:09:16.183Z,20.01
2019-03-01T10:10:16.688Z,20.01
2019-03-01T10:11:16.100Z,20.06
2019-03-01T10:12:16.675Z,20.14
2019-03-01T10:13:16.081Z,20.23
2019-03-01T10:14:16.063Z,20.33
2019-03-01T10:15:16.041Z,20.32
2019-03-01T10:16:16.031Z,20.42
2019-03-01T10:17:16.019Z,20.57
2019-03-01T10:18:16.037Z,20.73
2019-03-01T10:19:16.022Z,20.87
2019-03-01T10:20:15.986Z,20.99
2019-03-01T10:21:15.977Z,21.17
2019-03-01T10:22:15.966Z,21.21
2019-03-01T10:23:16.678Z,21.35
2019-03-01T10:24:15.957Z,21.42
2019-03-01T10:25:15.932Z,21.50
2019-03-01T10:26:16.692Z,21.72
2019-03-01T10:27:15.909Z,21.86
2019-03-01T10:28:15.897Z,22.00
2019-03-01T10:29:15.913Z,22.12
2019-03-01T10:30:15.875Z,22.20
2019-03-01T10:31:15.863Z,22.28
2019-03-01T10:32:15.855Z,22.30
2019-03-01T10:33:15.849Z,22.45
2019-03-01T10:34:16.196Z,22.47
2019-03-01T10:35:15.829Z,22.52
2019-03-01T10:36:15.807Z,22.60
2019-03-01T10:37:15.797Z,22.72
2019-03-01T10:38:15.786Z,22.85
2019-03-01T10:39:16.687Z,22.85
2019-03-01T10:40:15.773Z,22.95
2019-03-01T10:41:16.678Z,23.02
2019-03-01T10:42:16.676Z,23.02
2019-03-01T10:43:15.732Z,23.13
2019-03-01T10:44:15.732Z,23.13
2019-03-01T10:45:15.718Z,23.19
2019-03-01T10:46:16.674Z,23.23
2019-03-01T10:47:15.688Z,23.27
2019-03-01T10:48:15.677Z,23.33
2019-03-01T10:49:15.679Z,23.35
2019-03-01T10:50:15.696Z,23.48
2019-03-01T10:51:15.647Z,23.51
2019-03-01T10:52:15.633Z,23.53
2019-03-01T10:53:15.713Z,23.66
2019-03-01T10:54:15.621Z,23.63
2019-03-01T10:55:15.614Z,23.68
2019-03-01T10:56:15.590Z,23.75
2019-03-01T10:57:15.581Z,23.76
2019-03-01T10:58:15.566Z,23.76
2019-03-01T10:59:15.564Z,23.85
2019-03-01T11:00:15.557Z,23.85
2019-03-01T11:01:15.537Z,23.94
2019-03-01T11:02:16.176Z,23.91
2019-03-01T11:03:15.515Z,24.00
2019-03-01T11:04:15.504Z,24.05
2019-03-01T11:05:15.514Z,24.09
2019-03-01T11:06:16.185Z,24.10
2019-03-01T11:07:15.475Z,24.15
2019-03-01T11:08:15.456Z,24.13
2019-03-01T11:09:15.466Z,24.24
2019-03-01T11:10:15.460Z,24.27
2019-03-01T11:11:15.427Z,24.35
2019-03-01T11:12:15.418Z,24.35
2019-03-01T11:13:15.407Z,24.21
2019-03-01T11:14:15.407Z,24.24
2019-03-01T11:15:15.381Z,24.39
2019-03-01T11:16:15.692Z,24.32
2019-03-01T11:17:15.358Z,24.35
2019-03-01T11:18:15.349Z,24.46
2019-03-01T11:19:15.353Z,24.42
2019-03-01T11:20:15.324Z,24.43
2019-03-01T11:21:15.329Z,24.45
2019-03-01T11:22:15.306Z,24.49
2019-03-01T11:23:16.193Z,24.49
2019-03-01T11:24:15.295Z,24.55
2019-03-01T11:25:15.275Z,24.57
2019-03-01T11:26:15.700Z,24.55
2019-03-01T11:27:16.179Z,24.58
2019-03-01T11:28:16.179Z,24.53
2019-03-01T11:29:15.244Z,24.58
2019-03-01T11:30:15.226Z,24.60
2019-03-01T11:31:15.219Z,24.55
2019-03-01T11:32:15.199Z,24.57
2019-03-01T11:33:15.197Z,24.60
2019-03-01T11:34:15.190Z,24.57
2019-03-01T11:35:15.168Z,24.62
2019-03-01T11:36:15.164Z,24.58
2019-03-01T11:37:15.148Z,24.62
2019-03-01T11:38:15.137Z,24.58
2019-03-01T11:39:15.137Z,24.58
2019-03-01T11:40:15.115Z,24.62
2019-03-01T11:41:15.120Z,24.62
2019-03-01T11:42:15.102Z,24.60
2019-03-01T11:43:15.688Z,24.60
2019-03-01T11:44:15.696Z,24.61
2019-03-01T11:45:15.059Z,24.57
2019-03-01T11:46:15.050Z,24.57
2019-03-01T11:47:15.049Z,24.60
2019-03-01T11:48:15.027Z,24.52
2019-03-01T11:49:15.018Z,24.50
2019-03-01T11:50:15.013Z,24.50
2019-03-01T11:51:14.993Z,24.52
2019-03-01T11:52:15.189Z,24.43
2019-03-01T11:53:14.977Z,24.43
2019-03-01T11:54:14.976Z,24.47
2019-03-01T11:55:15.678Z,24.46
2019-03-01T11:56:14.940Z,24.40
2019-03-01T11:57:14.933Z,24.42
2019-03-01T11:58:14.938Z,24.42
2019-03-01T11:59:15.681Z,24.31
2019-03-01T12:00:14.946Z,24.35
2019-03-01T12:01:17.380Z,24.42
2019-03-01T12:02:14.880Z,24.40
2019-03-01T12:03:15.516Z,24.42
2019-03-01T12:04:14.849Z,24.31
2019-03-01T12:05:14.844Z,24.28
2019-03-01T12:06:14.826Z,24.30
2019-03-01T12:07:15.204Z,24.24
2019-03-01T12:08:14.807Z,24.22
2019-03-01T12:09:14.794Z,24.27
2019-03-01T12:10:14.792Z,24.28
2019-03-01T12:11:14.772Z,24.30
2019-03-01T12:12:15.198Z,24.24
2019-03-01T12:13:15.697Z,24.28
2019-03-01T12:14:14.739Z,24.21
2019-03-01T12:15:14.735Z,24.27
2019-03-01T12:16:14.741Z,24.24
2019-03-01T12:17:14.723Z,24.28
2019-03-01T12:18:14.724Z,24.25
2019-03-01T12:19:14.710Z,24.24
2019-03-01T12:20:14.695Z,24.13
2019-03-01T12:21:14.670Z,24.28
2019-03-01T12:22:17.441Z,24.20
2019-03-01T12:23:14.692Z,24.18
2019-03-01T12:24:14.635Z,24.12
2019-03-01T12:25:14.637Z,24.15
2019-03-01T12:26:15.184Z,24.16
2019-03-01T12:27:14.604Z,24.13
2019-03-01T12:28:14.612Z,24.12
2019-03-01T12:29:14.581Z,24.09
2019-03-01T12:30:14.590Z,23.98
2019-03-01T12:31:14.589Z,24.12
2019-03-01T12:32:14.546Z,24.03
2019-03-01T12:33:14.558Z,24.03
2019-03-01T12:34:14.526Z,24.09
2019-03-01T12:35:14.539Z,24.05
2019-03-01T12:36:14.504Z,24.10
2019-03-01T12:37:14.496Z,23.98
2019-03-01T12:38:14.492Z,24.02
2019-03-01T12:39:14.472Z,24.05
2019-03-01T12:40:14.561Z,23.94
2019-03-01T12:41:15.189Z,24.05
2019-03-01T12:42:14.442Z,24.05
2019-03-01T12:43:14.439Z,23.98
2019-03-01T12:44:14.417Z,23.90
2019-03-01T12:45:14.421Z,23.88
2019-03-01T12:46:15.192Z,23.88
2019-03-01T12:47:14.395Z,23.93
2019-03-01T12:48:14.385Z,23.93
2019-03-01T12:49:14.364Z,23.85
2019-03-01T12:50:14.366Z,23.88
2019-03-01T12:51:15.188Z,23.83
2019-03-01T12:52:14.332Z,23.88